createdAt,value
2022-11-29T00:01:36.934Z,91.56
2022-11-29T00:04:04.676Z,90.99
2022-11-29T00:06:34.490Z,91.08
2022-11-29T00:09:06.439Z,91.55
2022-11-29T00:11:55.438Z,91.41
2022-11-29T00:14:23.635Z,91.67
2022-11-29T00:16:56.243Z,91.63
2022-11-29T00:19:23.125Z,91.51
2022-11-29T00:21:50.647Z,91.45
2022-11-29T00:24:17.672Z,91.29
2022-11-29T00:26:44.878Z,91.40
2022-11-29T00:29:13.131Z,91.64
2022-11-29T00:31:41.136Z,91.43
2022-11-29T00:34:08.450Z,91.12
2022-11-29T00:36:36.356Z,91.28
2022-11-29T00:39:04.655Z,90.96
2022-11-29T00:41:32.225Z,90.88
2022-11-29T00:43:59.042Z,91.19
2022-11-29T00:46:26.368Z,91.41
2022-11-29T00:48:53.413Z,91.50
2022-11-29T00:51:20.491Z,91.32
2022-11-29T00:53:47.328Z,91.37
2022-11-29T00:56:14.634Z,91.27
2022-11-29T00:58:43.577Z,91.31
2022-11-29T01:01:12.021Z,91.19
2022-11-29T01:03:39.454Z,91.54
2022-11-29T01:06:09.558Z,91.38
2022-11-29T01:08:37.022Z,91.32
2022-11-29T01:11:20.069Z,91.06
2022-11-29T01:13:48.155Z,91.61
2022-11-29T01:16:16.314Z,91.44
2022-11-29T01:18:43.563Z,91.42
2022-11-29T01:21:13.899Z,91.77
2022-11-29T01:23:41.658Z,91.57
2022-11-29T01:29:04.592Z,91.61
2022-11-29T01:31:36.444Z,91.28
2022-11-29T01:34:04.406Z,91.71
2022-11-29T01:36:34.012Z,91.40
2022-11-29T01:39:02.053Z,90.88
2022-11-29T01:41:32.056Z,91.20
2022-11-29T01:44:28.544Z,91.25
2022-11-29T01:46:56.669Z,91.04
2022-11-29T01:49:41.148Z,91.49
2022-11-29T01:52:14.514Z,91.04
2022-11-29T01:54:55.445Z,91.27
2022-11-29T01:57:23.450Z,91.16
2022-11-29T01:59:58.259Z,91.19
2022-11-29T02:03:15.852Z,91.22
2022-11-29T02:05:50.202Z,91.68
2022-11-29T02:08:25.026Z,91.73
2022-11-29T02:11:16.502Z,91.71
2022-11-29T02:14:10.345Z,91.97
2022-11-29T02:16:56.412Z,91.94
2022-11-29T02:19:29.999Z,91.61
2022-11-29T02:22:09.029Z,92.04
2022-11-29T02:24:50.630Z,92.27
2022-11-29T02:27:47.978Z,92.12
2022-11-29T02:30:32.485Z,92.04
2022-11-29T02:33:34.261Z,92.00
2022-11-29T02:36:19.586Z,92.47
2022-11-29T02:39:14.104Z,92.58
2022-11-29T02:42:08.544Z,92.36
2022-11-29T02:44:38.484Z,92.40
2022-11-29T02:47:27.286Z,92.15
2022-11-29T02:49:57.098Z,91.92
2022-11-29T02:52:55.882Z,91.75
2022-11-29T02:55:43.781Z,91.95
2022-11-29T02:58:25.522Z,92.50
2022-11-29T03:01:09.663Z,91.82
2022-11-29T03:03:43.378Z,92.23
2022-11-29T03:06:28.653Z,92.01
2022-11-29T03:09:07.933Z,91.68
2022-11-29T03:12:03.271Z,91.93
2022-11-29T03:14:39.538Z,91.82
2022-11-29T03:17:24.062Z,91.60
2022-11-29T03:20:03.801Z,91.25
2022-11-29T03:23:05.314Z,91.63
2022-11-29T03:25:41.845Z,91.52
2022-11-29T03:28:14.809Z,91.41
2022-11-29T03:30:53.533Z,91.43
2022-11-29T03:33:46.400Z,91.55
2022-11-29T03:36:48.185Z,91.21
2022-11-29T03:39:24.846Z,91.55
2022-11-29T03:41:55.424Z,91.37
2022-11-29T03:44:27.465Z,91.33
2022-11-29T03:47:02.194Z,91.63
2022-11-29T03:49:36.149Z,91.50
2022-11-29T03:52:12.152Z,91.98
2022-11-29T03:55:12.063Z,91.87
2022-11-29T03:57:58.026Z,91.65
2022-11-29T04:00:25.235Z,91.39
2022-11-29T04:03:20.225Z,91.65
2022-11-29T04:06:19.038Z,91.79
2022-11-29T04:09:03.829Z,91.62
2022-11-29T04:11:59.179Z,91.66
2022-11-29T04:15:17.385Z,91.99
2022-11-29T04:18:05.258Z,91.59
2022-11-29T04:20:50.496Z,91.85
2022-11-29T04:23:35.949Z,91.87
2022-11-29T04:26:47.341Z,91.95
2022-11-29T04:29:38.847Z,91.60
2022-11-29T04:32:30.287Z,91.70
2022-11-29T04:35:09.718Z,91.65
2022-11-29T04:38:09.551Z,91.85
2022-11-29T04:40:48.224Z,92.21
2022-11-29T04:43:54.474Z,92.09
2022-11-29T04:46:48.654Z,92.38
2022-11-29T04:49:45.029Z,92.12
2022-11-29T04:52:14.361Z,92.05
2022-11-29T04:54:51.612Z,92.11
2022-11-29T04:58:08.641Z,92.33
2022-11-29T05:00:48.026Z,92.58
2022-11-29T05:03:27.743Z,92.77
2022-11-29T05:06:09.901Z,92.46
2022-11-29T05:08:39.730Z,92.89
2022-11-29T05:11:30.051Z,92.69
2022-11-29T05:14:27.139Z,92.51
2022-11-29T05:17:08.488Z,92.57
2022-11-29T05:20:15.894Z,92.20
2022-11-29T05:23:17.924Z,92.08
2022-11-29T05:25:58.241Z,91.94
2022-11-29T05:28:58.771Z,92.06
2022-11-29T05:31:47.649Z,92.17
2022-11-29T05:34:44.126Z,91.87
2022-11-29T05:37:43.501Z,91.91
2022-11-29T05:40:13.463Z,92.13
2022-11-29T05:43:06.662Z,92.06
2022-11-29T05:46:01.953Z,91.90
2022-11-29T05:48:45.115Z,92.15
2022-11-29T05:52:09.495Z,92.14
2022-11-29T05:54:45.253Z,92.19
2022-11-29T05:57:37.142Z,92.39
2022-11-29T06:00:06.225Z,92.17
2022-11-29T06:02:58.811Z,91.95
2022-11-29T06:05:35.108Z,92.12
2022-11-29T06:08:16.558Z,92.00
2022-11-29T06:10:57.957Z,92.23
2022-11-29T06:13:33.935Z,92.44
2022-11-29T06:16:07.908Z,92.61
2022-11-29T06:19:06.515Z,92.25
2022-11-29T06:21:54.739Z,92.17
2022-11-29T06:24:32.428Z,92.53
2022-11-29T06:27:25.751Z,92.00
2022-11-29T06:30:10.911Z,92.06
2022-11-29T06:33:05.159Z,92.25
2022-11-29T06:35:37.446Z,92.04
2022-11-29T06:38:15.464Z,92.18
2022-11-29T06:40:43.119Z,92.25
2022-11-29T06:43:10.308Z,92.56
2022-11-29T06:45:39.603Z,92.15
2022-11-29T06:48:09.768Z,92.33
2022-11-29T06:50:56.362Z,92.63
2022-11-29T06:53:29.532Z,92.55
2022-11-29T06:56:15.483Z,92.33
2022-11-29T06:58:57.886Z,92.36
2022-11-29T07:01:53.802Z,92.36
2022-11-29T07:04:30.019Z,92.08
2022-11-29T07:06:57.717Z,91.49
2022-11-29T07:09:33.405Z,91.71
2022-11-29T07:12:01.268Z,91.56
2022-11-29T07:14:28.622Z,91.84
2022-11-29T07:17:14.768Z,91.46
2022-11-29T07:20:06.148Z,91.13
2022-11-29T07:22:42.257Z,91.49
2022-11-29T07:25:31.088Z,91.08
2022-11-29T07:28:26.763Z,91.29
2022-11-29T07:30:58.190Z,91.21
2022-11-29T07:33:42.206Z,91.60
2022-11-29T07:36:19.028Z,91.65
2022-11-29T07:38:59.144Z,91.15
2022-11-29T07:41:50.885Z,90.87
2022-11-29T07:44:40.149Z,91.12
2022-11-29T07:47:08.798Z,90.85
2022-11-29T07:49:36.195Z,91.16
2022-11-29T07:52:03.090Z,90.25
2022-11-29T07:54:30.864Z,90.38
2022-11-29T07:56:57.801Z,90.30
2022-11-29T07:59:24.925Z,90.45
2022-11-29T08:01:51.822Z,90.48
2022-11-29T08:04:19.102Z,90.09
2022-11-29T08:06:45.997Z,89.46
2022-11-29T08:09:13.142Z,89.19
2022-11-29T08:11:40.251Z,89.29
2022-11-29T08:14:07.408Z,89.84
2022-11-29T08:16:34.846Z,89.56
2022-11-29T08:19:02.100Z,89.05
2022-11-29T08:21:29.240Z,89.08
2022-11-29T08:23:56.412Z,89.20
2022-11-29T08:26:26.875Z,89.80
2022-11-29T08:28:58.348Z,89.54
2022-11-29T08:31:25.247Z,89.28
2022-11-29T08:33:52.422Z,89.56
2022-11-29T08:36:20.862Z,89.74
2022-11-29T08:38:48.358Z,89.35
2022-11-29T08:41:16.838Z,89.00
2022-11-29T08:43:44.791Z,88.91
2022-11-29T08:46:18.077Z,88.86
2022-11-29T08:48:47.166Z,87.64
2022-11-29T08:51:14.814Z,87.42
2022-11-29T08:53:42.257Z,87.40
2022-11-29T08:56:41.923Z,87.46
2022-11-29T08:58:59.093Z,86.93
2022-11-29T09:01:26.009Z,86.71
2022-11-29T09:04:07.684Z,86.83
2022-11-29T09:06:39.579Z,86.79
2022-11-29T09:09:06.967Z,86.78
2022-11-29T09:11:35.585Z,87.29
2022-11-29T09:14:06.138Z,87.18
2022-11-29T09:16:35.935Z,87.16
2022-11-29T09:19:05.375Z,86.88
2022-11-29T09:21:34.883Z,86.25
2022-11-29T09:24:06.217Z,86.46
2022-11-29T09:26:35.982Z,86.12
2022-11-29T09:29:05.266Z,85.63
2022-11-29T09:31:33.539Z,85.75
2022-11-29T09:34:00.983Z,86.13
2022-11-29T09:36:30.149Z,86.38
2022-11-29T09:38:58.378Z,85.64
2022-11-29T09:41:38.558Z,85.47
2022-11-29T09:44:43.781Z,85.98
2022-11-29T09:47:33.307Z,85.09
2022-11-29T09:50:14.422Z,84.78
2022-11-29T09:52:41.313Z,84.34
2022-11-29T09:55:24.876Z,84.92
2022-11-29T09:57:55.567Z,84.79
2022-11-29T10:00:23.014Z,85.01
2022-11-29T10:03:09.884Z,84.76
2022-11-29T10:05:47.502Z,85.20
2022-11-29T10:08:38.505Z,85.35
2022-11-29T10:11:17.839Z,84.27
2022-11-29T10:13:52.121Z,84.84
2022-11-29T10:16:28.718Z,84.71
2022-11-29T10:19:04.837Z,84.56
2022-11-29T10:21:36.792Z,83.73
2022-11-29T10:24:15.519Z,84.18
2022-11-29T10:26:43.942Z,83.58
2022-11-29T10:29:14.721Z,83.60
2022-11-29T10:31:46.913Z,83.26
2022-11-29T10:34:17.114Z,83.17
2022-11-29T10:36:52.797Z,83.27
2022-11-29T10:39:39.939Z,83.01
2022-11-29T10:42:35.191Z,83.28
2022-11-29T10:45:03.007Z,83.12
2022-11-29T10:47:32.062Z,82.24
2022-11-29T10:50:00.034Z,82.42
2022-11-29T10:52:27.164Z,83.79
2022-11-29T10:54:58.729Z,83.49
2022-11-29T10:57:26.130Z,83.39
2022-11-29T11:00:01.276Z,82.54
2022-11-29T11:02:28.920Z,82.75
2022-11-29T11:04:59.657Z,82.84
2022-11-29T11:07:36.085Z,83.36
2022-11-29T11:10:06.065Z,82.86
2022-11-29T11:12:37.079Z,83.55
2022-11-29T11:15:29.791Z,83.31
2022-11-29T11:18:05.951Z,82.98
2022-11-29T11:20:36.795Z,83.38
2022-11-29T11:23:29.171Z,84.41
2022-11-29T11:26:02.405Z,83.43
2022-11-29T11:28:35.735Z,83.88
2022-11-29T11:31:08.531Z,83.72
2022-11-29T11:33:40.180Z,83.02
2022-11-29T11:36:09.730Z,82.93
2022-11-29T11:38:39.900Z,83.46
2022-11-29T11:41:47.793Z,82.97
2022-11-29T11:47:28.302Z,82.99
2022-11-29T11:50:04.840Z,83.31
2022-11-29T11:52:48.894Z,83.29
2022-11-29T11:55:39.658Z,83.05
2022-11-29T11:58:12.572Z,82.91
2022-11-29T12:01:06.635Z,82.78
2022-11-29T12:04:02.939Z,82.54
2022-11-29T12:06:39.373Z,83.16
2022-11-29T12:09:09.156Z,82.61
2022-11-29T12:11:55.364Z,82.83
2022-11-29T12:14:30.299Z,82.55
2022-11-29T12:17:22.715Z,83.46
2022-11-29T12:20:04.477Z,83.44
2022-11-29T12:22:56.821Z,83.66
2022-11-29T12:25:29.461Z,83.78
2022-11-29T12:27:56.911Z,83.85
2022-11-29T12:30:23.962Z,83.46
2022-11-29T12:33:03.858Z,83.24
2022-11-29T12:35:35.096Z,83.19
2022-11-29T12:38:20.444Z,82.94
2022-11-29T12:41:25.853Z,83.27
2022-11-29T12:44:05.244Z,83.49
2022-11-29T12:46:33.149Z,82.96
2022-11-29T12:49:11.868Z,82.71
2022-11-29T12:51:57.135Z,83.49
2022-11-29T12:54:42.728Z,83.69
2022-11-29T12:57:23.673Z,83.21
2022-11-29T13:00:17.982Z,83.07
2022-11-29T13:03:17.051Z,83.26
2022-11-29T13:06:07.710Z,83.21
2022-11-29T13:08:43.422Z,83.77
2022-11-29T13:11:27.906Z,83.65
2022-11-29T13:14:43.924Z,83.57
2022-11-29T13:17:30.596Z,83.24
2022-11-29T13:20:08.948Z,83.65
2022-11-29T13:22:59.391Z,83.54
2022-11-29T13:25:39.763Z,84.22
2022-11-29T13:28:22.247Z,84.16
2022-11-29T13:30:50.379Z,84.26
2022-11-29T13:33:30.470Z,84.07
2022-11-29T13:36:26.622Z,83.69
2022-11-29T13:39:28.251Z,83.79
2022-11-29T13:42:05.489Z,83.63
2022-11-29T13:44:43.723Z,83.99
2022-11-29T13:47:13.754Z,83.56
2022-11-29T13:50:26.601Z,83.51
2022-11-29T13:53:04.797Z,84.18
2022-11-29T13:55:33.188Z,84.65
2022-11-29T13:58:19.626Z,84.45
2022-11-29T14:00:46.368Z,84.51
2022-11-29T14:03:28.644Z,84.43
2022-11-29T14:06:01.828Z,84.44
2022-11-29T14:08:42.444Z,84.79
2022-11-29T14:11:17.992Z,85.13
2022-11-29T14:13:55.163Z,85.13
2022-11-29T14:16:36.458Z,84.57
2022-11-29T14:19:06.296Z,84.46
2022-11-29T14:22:07.237Z,84.84
2022-11-29T14:24:35.428Z,84.42
2022-11-29T14:27:12.663Z,84.05
2022-11-29T14:29:54.053Z,84.21
2022-11-29T14:32:25.642Z,84.41
2022-11-29T14:35:02.061Z,84.95
2022-11-29T14:37:44.252Z,85.20
2022-11-29T14:40:23.241Z,84.71
2022-11-29T14:42:52.778Z,84.78
2022-11-29T14:45:30.238Z,85.04
2022-11-29T14:47:58.182Z,84.87
2022-11-29T14:50:35.906Z,84.36
2022-11-29T14:53:05.611Z,84.55
2022-11-29T14:55:37.924Z,84.37
2022-11-29T14:58:17.317Z,84.20
2022-11-29T15:00:47.914Z,83.91
2022-11-29T15:03:42.977Z,84.56
2022-11-29T15:06:18.386Z,84.48
2022-11-29T15:08:57.629Z,84.49
2022-11-29T15:11:31.152Z,83.84
2022-11-29T15:14:19.807Z,84.07
2022-11-29T15:17:00.099Z,84.08
2022-11-29T15:19:45.707Z,84.57
2022-11-29T15:22:18.682Z,84.27
2022-11-29T15:24:55.280Z,84.86
2022-11-29T15:27:24.359Z,84.76
2022-11-29T15:29:52.454Z,84.88
2022-11-29T15:32:26.087Z,84.95
2022-11-29T15:34:57.092Z,84.84
2022-11-29T15:37:25.156Z,84.88
2022-11-29T15:40:19.154Z,84.51
2022-11-29T15:43:00.082Z,84.38
2022-11-29T15:45:35.997Z,84.62
2022-11-29T15:48:22.235Z,84.38
2022-11-29T15:51:02.562Z,84.86
2022-11-29T15:53:44.880Z,84.84
2022-11-29T15:56:18.296Z,85.57
2022-11-29T15:58:48.253Z,84.91
2022-11-29T16:01:21.596Z,84.93
2022-11-29T16:03:53.075Z,84.77
2022-11-29T16:06:36.386Z,84.46
2022-11-29T16:09:04.130Z,84.66
2022-11-29T16:11:31.744Z,84.54
2022-11-29T16:14:11.776Z,85.23
2022-11-29T16:16:40.578Z,84.57
2022-11-29T16:19:27.467Z,85.26
2022-11-29T16:22:12.718Z,85.25
2022-11-29T16:25:03.697Z,84.82
2022-11-29T16:27:34.183Z,85.08
2022-11-29T16:30:02.731Z,84.65
2022-11-29T16:32:35.941Z,84.85
2022-11-29T16:35:22.058Z,84.52
2022-11-29T16:37:49.190Z,84.74
2022-11-29T16:40:21.950Z,85.23
2022-11-29T16:43:20.081Z,84.62
2022-11-29T16:45:47.334Z,84.91
2022-11-29T16:48:23.326Z,85.34
2022-11-29T16:51:11.229Z,84.83
2022-11-29T16:53:48.065Z,85.21
2022-11-29T16:56:17.864Z,84.32
2022-11-29T16:59:24.777Z,85.01
2022-11-29T17:01:35.117Z,84.70
2022-11-29T17:04:02.222Z,84.66
2022-11-29T17:06:30.274Z,84.87
2022-11-29T17:08:59.375Z,84.58
2022-11-29T17:11:26.846Z,84.70
2022-11-29T17:13:54.098Z,84.41
2022-11-29T17:16:23.498Z,85.23
2022-11-29T17:18:52.842Z,85.07
2022-11-29T17:21:24.031Z,85.04
2022-11-29T17:23:51.295Z,85.04
2022-11-29T17:26:20.232Z,85.01
2022-11-29T17:28:48.667Z,85.31
2022-11-29T17:31:18.656Z,85.05
2022-11-29T17:33:46.027Z,84.92
2022-11-29T17:36:17.075Z,84.12
2022-11-29T17:38:45.060Z,84.90
2022-11-29T17:41:14.716Z,84.95
2022-11-29T17:43:42.148Z,84.87
2022-11-29T17:46:18.913Z,84.92
2022-11-29T17:48:46.406Z,85.20
2022-11-29T17:51:43.686Z,84.81
2022-11-29T17:54:04.913Z,84.53
2022-11-29T17:56:32.765Z,84.79
2022-11-29T17:59:01.518Z,84.89
2022-11-29T18:01:31.554Z,84.62
2022-11-29T18:04:00.753Z,84.82
2022-11-29T18:06:30.220Z,85.20
2022-11-29T18:08:59.605Z,85.41
2022-11-29T18:11:43.282Z,84.60
2022-11-29T18:14:15.680Z,84.62
2022-11-29T18:16:45.418Z,84.71
2022-11-29T18:19:15.829Z,84.79
2022-11-29T18:21:42.999Z,84.98
2022-11-29T18:24:10.576Z,84.90
2022-11-29T18:26:38.970Z,84.82
2022-11-29T18:29:06.995Z,84.84
2022-11-29T18:31:40.101Z,84.98
2022-11-29T18:34:11.557Z,84.55
2022-11-29T18:36:40.065Z,84.36
2022-11-29T18:39:33.267Z,84.40
2022-11-29T18:42:00.626Z,84.73
2022-11-29T18:44:29.570Z,84.86
2022-11-29T18:46:57.481Z,84.43
2022-11-29T18:49:24.329Z,84.57
2022-11-29T18:51:51.785Z,83.98
2022-11-29T18:54:19.089Z,84.30
2022-11-29T18:56:46.959Z,84.46
2022-11-29T18:59:17.312Z,84.41
2022-11-29T19:01:47.654Z,84.68
2022-11-29T19:04:20.383Z,84.53
2022-11-29T19:06:48.764Z,84.55
2022-11-29T19:09:21.025Z,84.53
2022-11-29T19:11:49.734Z,84.48
2022-11-29T19:14:16.793Z,84.30
2022-11-29T19:16:46.815Z,84.04
2022-11-29T19:19:13.711Z,83.84
2022-11-29T19:21:41.535Z,84.32
2022-11-29T19:24:15.713Z,84.61
2022-11-29T19:26:45.642Z,84.15
2022-11-29T19:29:13.943Z,84.49
2022-11-29T19:31:42.515Z,84.59
2022-11-29T19:34:10.200Z,84.19
2022-11-29T19:36:43.849Z,84.42
2022-11-29T19:39:13.804Z,84.55
2022-11-29T19:41:45.868Z,84.37
2022-11-29T19:44:13.112Z,84.26
2022-11-29T19:46:44.214Z,84.28
2022-11-29T19:49:11.805Z,83.90
2022-11-29T19:51:39.377Z,84.35
2022-11-29T19:54:07.786Z,84.06
2022-11-29T19:56:35.266Z,83.87
2022-11-29T19:59:02.568Z,84.32
2022-11-29T20:01:39.744Z,84.00
2022-11-29T20:04:09.129Z,84.08
2022-11-29T20:06:36.319Z,84.34
2022-11-29T20:09:03.999Z,84.08
2022-11-29T20:11:31.146Z,84.07
2022-11-29T20:14:03.023Z,84.04
2022-11-29T20:16:31.954Z,84.21
2022-11-29T20:18:59.775Z,84.51
2022-11-29T20:21:30.645Z,84.16
2022-11-29T20:23:59.732Z,84.32
2022-11-29T20:26:27.963Z,83.83
2022-11-29T20:28:55.125Z,83.96
2022-11-29T20:31:23.437Z,83.59
2022-11-29T20:33:52.795Z,83.37
2022-11-29T20:36:40.001Z,83.43
2022-11-29T20:39:41.407Z,83.21
2022-11-29T20:42:28.909Z,82.83
2022-11-29T20:44:59.189Z,82.67
2022-11-29T20:47:31.562Z,82.99
2022-11-29T20:49:58.560Z,83.08
2022-11-29T20:52:49.986Z,82.50
2022-11-29T20:55:17.688Z,82.94
2022-11-29T20:57:44.909Z,82.33
2022-11-29T21:00:12.631Z,82.53
2022-11-29T21:02:39.746Z,82.00
2022-11-29T21:05:07.431Z,82.44
2022-11-29T21:07:34.794Z,82.36
2022-11-29T21:10:02.129Z,82.77
2022-11-29T21:12:30.647Z,82.51
2022-11-29T21:14:58.209Z,82.08
2022-11-29T21:17:31.884Z,82.54
2022-11-29T21:20:01.253Z,82.32
2022-11-29T21:22:39.893Z,82.58
2022-11-29T21:25:21.900Z,82.97
2022-11-29T21:27:49.414Z,82.66
2022-11-29T21:30:21.796Z,82.67
2022-11-29T21:32:49.322Z,82.35
2022-11-29T21:35:16.568Z,82.53
2022-11-29T21:37:44.494Z,82.85
2022-11-29T21:40:13.295Z,82.69
2022-11-29T21:42:40.730Z,82.88
2022-11-29T21:45:14.583Z,82.81
2022-11-29T21:48:01.591Z,82.25
2022-11-29T21:50:29.145Z,82.50
2022-11-29T21:52:56.532Z,82.92
2022-11-29T21:55:30.026Z,82.92
2022-11-29T21:57:58.796Z,82.95
2022-11-29T22:00:26.159Z,82.97
2022-11-29T22:02:53.042Z,82.85
2022-11-29T22:05:20.350Z,82.59
2022-11-29T22:07:47.226Z,82.17
2022-11-29T22:10:14.464Z,82.17
2022-11-29T22:12:49.465Z,82.23
2022-11-29T22:15:24.502Z,82.22
2022-11-29T22:17:53.454Z,82.20
2022-11-29T22:20:20.748Z,82.08
2022-11-29T22:22:48.713Z,82.32
2022-11-29T22:25:16.032Z,82.44
2022-11-29T22:27:43.068Z,82.07
2022-11-29T22:30:10.704Z,82.44
2022-11-29T22:32:37.607Z,82.40
2022-11-29T22:35:05.330Z,82.33
2022-11-29T22:37:32.208Z,82.68
2022-11-29T22:39:59.442Z,81.88
2022-11-29T22:42:26.396Z,81.70
2022-11-29T22:44:53.520Z,82.14
2022-11-29T22:47:20.455Z,81.74
2022-11-29T22:49:49.239Z,81.99
2022-11-29T22:52:16.102Z,82.22
2022-11-29T22:54:43.253Z,82.36
2022-11-29T22:57:10.128Z,82.49
2022-11-29T22:59:37.247Z,82.16
2022-11-29T23:02:04.216Z,81.71
2022-11-29T23:04:31.579Z,82.03
2022-11-29T23:06:58.411Z,82.20
2022-11-29T23:09:26.058Z,82.09
2022-11-29T23:11:56.226Z,82.42
2022-11-29T23:14:23.991Z,81.95
2022-11-29T23:16:51.430Z,82.14
2022-11-29T23:19:18.795Z,82.42
2022-11-29T23:21:46.493Z,82.44
2022-11-29T23:24:15.239Z,82.55
2022-11-29T23:26:45.840Z,82.46
2022-11-29T23:29:19.053Z,82.16
2022-11-29T23:31:47.286Z,82.69
2022-11-29T23:34:15.355Z,82.60
2022-11-29T23:36:43.334Z,82.22
2022-11-29T23:39:11.865Z,82.58
2022-11-29T23:41:39.761Z,82.34
2022-11-29T23:44:09.335Z,82.30
2022-11-29T23:46:36.679Z,82.17
2022-11-29T23:49:04.171Z,82.19
2022-11-29T23:51:31.147Z,82.57
2022-11-29T23:53:58.210Z,82.99
2022-11-29T23:56:25.113Z,83.07
2022-11-29T23:58:52.204Z,82.96
